WMKP/PEN METAR and TAF weather

Enter ICAO airport designator
Station Type Date Time Source
WMKP METAR 2022/12/04 11:30 UTC NOAA

WMKP 041130Z VRB02KT 8000 FEW020 28/24 Q1006 NOSIG


Station Type Date Time Source
WMKP Decoded METAR 2022/12/04 11:30 UTC NOAA

Penang / Bayan Lepas, Malaysia (WMKP) 05-18N 100-16E 4M
Dec 04, 2022 - 06:30 AM EST / 2022.12.04 1130 UTC
Wind: Variable at 2 MPH (2 KT):0
Visibility: 4 mile(s):0
Sky conditions: mostly clear
Temperature: 82 F (28 C)
Dew Point: 75 F (24 C)
Relative Humidity: 78%
Pressure (altimeter): 29.71 in. Hg (1006 hPa)
ob: WMKP 041130Z VRB02KT 8000 FEW020 28/24 Q1006 NOSIG
cycle: 11

Station Type Date Time Source
WMKP TAF 2022/12/04 12:09 UTC NOAA

TAF WMKP 041100Z 0412/0512 03005KT 9000 FEW025
TEMPO 0422/0503 VRB02KT 5000 TSRA FEW010 FEW017CB
BECMG 0504/0506 21006KT 9999 FEW020

Example: see airport list